createdAt,value
2023-05-23T00:02:24.410Z,42.50
2023-05-23T00:04:52.658Z,43.20
2023-05-23T00:07:20.641Z,43.00
2023-05-23T00:09:48.720Z,42.60
2023-05-23T00:12:16.918Z,43.00
2023-05-23T00:14:47.990Z,42.80
2023-05-23T00:17:17.524Z,43.80
2023-05-23T00:19:46.914Z,43.40
2023-05-23T00:22:16.612Z,42.90
2023-05-23T00:24:45.404Z,42.50
2023-05-23T00:27:13.492Z,43.50
2023-05-23T00:29:41.611Z,43.20
2023-05-23T00:32:09.600Z,43.30
2023-05-23T00:34:37.828Z,43.30
2023-05-23T00:37:08.076Z,43.30
2023-05-23T00:39:36.118Z,42.90
2023-05-23T00:42:06.478Z,42.80
2023-05-23T00:44:34.540Z,43.00
2023-05-23T00:47:02.768Z,43.10
2023-05-23T00:49:31.972Z,43.30
2023-05-23T00:52:00.803Z,43.50
2023-05-23T00:54:32.053Z,43.10
2023-05-23T00:57:00.629Z,43.20
2023-05-23T00:59:28.653Z,43.50
2023-05-23T01:01:58.401Z,43.20
2023-05-23T01:04:28.260Z,42.80
2023-05-23T01:06:56.865Z,43.00
2023-05-23T01:09:27.127Z,43.70
2023-05-23T01:12:08.549Z,43.20
2023-05-23T01:14:43.914Z,43.30
2023-05-23T01:17:30.424Z,42.60
2023-05-23T01:20:08.083Z,43.30
2023-05-23T01:23:00.878Z,43.20
2023-05-23T01:25:50.176Z,43.50
2023-05-23T01:28:23.062Z,43.30
2023-05-23T01:30:53.974Z,43.60
2023-05-23T01:33:23.755Z,43.30
2023-05-23T01:35:52.738Z,42.70
2023-05-23T01:38:20.786Z,42.90
2023-05-23T01:40:48.818Z,43.10
2023-05-23T01:43:18.615Z,43.30
2023-05-23T01:45:46.839Z,42.80
2023-05-23T01:48:16.806Z,43.60
2023-05-23T01:50:46.242Z,43.70
2023-05-23T01:53:16.485Z,43.60
2023-05-23T01:55:44.888Z,43.40
2023-05-23T01:58:13.188Z,42.90
2023-05-23T02:00:42.626Z,43.40
2023-05-23T02:03:11.685Z,42.50
2023-05-23T02:05:40.045Z,42.70
2023-05-23T02:08:08.317Z,43.40
2023-05-23T02:10:36.353Z,43.20
2023-05-23T02:13:04.369Z,42.60
2023-05-23T02:15:32.414Z,42.60
2023-05-23T02:18:03.197Z,42.60
2023-05-23T02:20:31.347Z,43.20
2023-05-23T02:22:59.371Z,42.90
2023-05-23T02:25:27.362Z,42.80
2023-05-23T02:27:55.418Z,42.60
2023-05-23T02:30:23.447Z,43.10
2023-05-23T02:32:51.598Z,42.90
2023-05-23T02:35:21.615Z,43.40
2023-05-23T02:37:49.622Z,43.30
2023-05-23T02:40:17.832Z,42.80
2023-05-23T02:42:45.984Z,43.10
2023-05-23T02:45:14.014Z,42.40
2023-05-23T02:47:42.034Z,42.60
2023-05-23T02:50:11.407Z,43.30
2023-05-23T02:52:42.287Z,44.20
2023-05-23T02:55:11.016Z,44.30
2023-05-23T02:57:39.085Z,44.20
2023-05-23T03:00:10.268Z,44.40
2023-05-23T03:02:38.336Z,44.20
2023-05-23T03:05:07.968Z,44.00
2023-05-23T03:07:36.595Z,43.90
2023-05-23T03:10:07.594Z,44.20
2023-05-23T03:12:35.589Z,44.80
2023-05-23T03:15:03.883Z,44.20
2023-05-23T03:17:32.002Z,44.00
2023-05-23T03:20:00.013Z,43.90
2023-05-23T03:22:28.149Z,43.50
2023-05-23T03:24:56.174Z,44.60
2023-05-23T03:27:25.479Z,45.00
2023-05-23T03:29:53.478Z,44.20
2023-05-23T03:32:21.443Z,44.80
2023-05-23T03:34:49.409Z,44.30
2023-05-23T03:37:17.485Z,44.50
2023-05-23T03:39:45.509Z,44.50
2023-05-23T03:42:13.482Z,44.40
2023-05-23T03:44:43.005Z,44.40
2023-05-23T03:47:11.271Z,44.40
2023-05-23T03:49:39.226Z,43.90
2023-05-23T03:52:07.600Z,43.70
2023-05-23T03:54:35.650Z,44.40
2023-05-23T03:57:03.801Z,44.20
2023-05-23T03:59:32.256Z,44.70
2023-05-23T04:02:01.675Z,44.70
2023-05-23T04:04:30.941Z,44.60
2023-05-23T04:06:59.668Z,44.10
2023-05-23T04:09:27.672Z,44.00
2023-05-23T04:11:55.880Z,44.90
2023-05-23T04:14:25.198Z,44.90
2023-05-23T04:16:53.452Z,44.80
2023-05-23T04:19:22.815Z,45.20
2023-05-23T04:21:50.797Z,44.20
2023-05-23T04:24:18.843Z,44.90
2023-05-23T04:26:46.848Z,45.20
2023-05-23T04:29:15.106Z,45.10
2023-05-23T04:31:45.730Z,45.30
2023-05-23T04:34:14.250Z,44.90
2023-05-23T04:36:44.636Z,44.60
2023-05-23T04:39:12.753Z,44.20
2023-05-23T04:41:41.113Z,43.20
2023-05-23T04:44:10.093Z,42.70
2023-05-23T04:46:42.204Z,41.90
2023-05-23T04:49:10.804Z,40.90
2023-05-23T04:51:39.061Z,41.00
2023-05-23T04:54:08.632Z,41.40
2023-05-23T04:56:36.786Z,42.10
2023-05-23T04:59:04.910Z,41.30
2023-05-23T05:01:33.060Z,41.30
2023-05-23T05:04:01.416Z,40.80
2023-05-23T05:06:29.530Z,40.60
2023-05-23T05:08:57.543Z,40.60
2023-05-23T05:11:28.498Z,40.00
2023-05-23T05:13:56.578Z,39.40
2023-05-23T05:16:24.639Z,39.50
2023-05-23T05:18:52.796Z,39.70
2023-05-23T05:21:20.874Z,39.70
2023-05-23T05:23:48.883Z,39.60
2023-05-23T05:26:17.053Z,38.80
2023-05-23T05:28:46.455Z,38.80
2023-05-23T05:31:15.495Z,38.10
2023-05-23T05:33:45.780Z,39.20
2023-05-23T05:36:13.971Z,38.80
2023-05-23T05:38:41.962Z,38.40
2023-05-23T05:41:09.987Z,38.10
2023-05-23T05:43:38.035Z,37.80
2023-05-23T05:46:07.467Z,37.70
2023-05-23T05:48:35.498Z,38.30
2023-05-23T05:51:04.035Z,38.20
2023-05-23T05:53:32.002Z,38.20
2023-05-23T05:56:01.147Z,37.20
2023-05-23T05:58:29.222Z,38.20
2023-05-23T06:00:57.447Z,38.10
2023-05-23T06:03:27.360Z,38.20
2023-05-23T06:05:55.485Z,37.30
2023-05-23T06:08:23.867Z,37.60
2023-05-23T06:10:51.897Z,37.70
2023-05-23T06:13:19.889Z,37.80
2023-05-23T06:15:48.011Z,37.00
2023-05-23T06:18:16.481Z,37.30
2023-05-23T06:20:45.818Z,37.90
2023-05-23T06:23:14.079Z,37.80
2023-05-23T06:25:42.088Z,37.80
2023-05-23T06:28:10.205Z,37.80
2023-05-23T06:30:39.030Z,37.50
2023-05-23T06:33:07.464Z,37.80
2023-05-23T06:35:35.503Z,37.00
2023-05-23T06:38:04.932Z,38.00
2023-05-23T06:40:32.955Z,37.70
2023-05-23T06:43:01.263Z,38.00
2023-05-23T06:45:29.410Z,37.80
2023-05-23T06:47:57.565Z,37.80
2023-05-23T06:50:25.571Z,37.50
2023-05-23T06:52:53.610Z,37.70
2023-05-23T06:55:23.626Z,37.10
2023-05-23T06:57:52.280Z,37.00
2023-05-23T07:00:21.155Z,37.70
2023-05-23T07:02:49.482Z,37.80
2023-05-23T07:05:18.073Z,36.90
2023-05-23T07:07:46.168Z,37.20
2023-05-23T07:10:14.356Z,37.10
2023-05-23T07:12:43.745Z,36.80
2023-05-23T07:15:13.569Z,35.80
2023-05-23T07:17:41.774Z,35.80
2023-05-23T07:20:10.945Z,35.60
2023-05-23T07:22:38.949Z,36.00
2023-05-23T07:25:09.408Z,36.50
2023-05-23T07:27:37.454Z,36.80
2023-05-23T07:30:09.725Z,35.00
2023-05-23T07:32:37.909Z,36.50
2023-05-23T07:35:06.948Z,35.70
2023-05-23T07:37:35.011Z,35.90
2023-05-23T07:40:04.549Z,36.40
2023-05-23T07:42:32.625Z,36.70
2023-05-23T07:45:01.042Z,36.80
2023-05-23T07:47:30.643Z,35.60
2023-05-23T07:49:59.005Z,35.00
2023-05-23T07:52:27.040Z,35.70
2023-05-23T07:54:55.048Z,34.70
2023-05-23T07:57:24.382Z,35.50
2023-05-23T07:59:53.204Z,34.90
2023-05-23T08:02:21.893Z,35.10
2023-05-23T08:04:51.299Z,35.80
2023-05-23T08:07:19.734Z,35.20
2023-05-23T08:09:47.819Z,34.90
2023-05-23T08:12:16.339Z,36.00
2023-05-23T08:14:51.401Z,34.80
2023-05-23T08:17:20.704Z,34.70
2023-05-23T08:19:48.941Z,34.50
2023-05-23T08:22:18.384Z,35.70
2023-05-23T08:24:46.491Z,35.90
2023-05-23T08:27:14.532Z,35.70
2023-05-23T08:29:45.848Z,35.70
2023-05-23T08:32:14.083Z,35.70
2023-05-23T08:34:42.264Z,34.60
2023-05-23T08:37:10.495Z,34.90
2023-05-23T08:39:39.856Z,35.50
2023-05-23T08:42:08.726Z,35.30
2023-05-23T08:44:36.784Z,35.00
2023-05-23T08:47:06.526Z,35.30
2023-05-23T08:49:35.228Z,34.90
2023-05-23T08:52:04.613Z,35.90
2023-05-23T08:54:33.862Z,35.60
2023-05-23T08:57:04.450Z,35.00
2023-05-23T08:59:34.620Z,35.20
2023-05-23T09:02:04.811Z,35.00
2023-05-23T09:04:33.254Z,35.20
2023-05-23T09:07:02.233Z,35.30
2023-05-23T09:09:30.916Z,35.30
2023-05-23T09:12:00.860Z,34.90
2023-05-23T09:14:32.124Z,35.20
2023-05-23T09:17:04.790Z,35.40
2023-05-23T09:19:33.410Z,35.30
2023-05-23T09:22:03.855Z,35.00
2023-05-23T09:24:39.554Z,35.30
2023-05-23T09:27:08.296Z,35.00
2023-05-23T09:29:40.661Z,35.60
2023-05-23T09:32:13.733Z,35.50
2023-05-23T09:34:43.201Z,35.60
2023-05-23T09:37:18.166Z,35.60
2023-05-23T09:39:49.275Z,35.50
2023-05-23T09:42:22.004Z,35.60
2023-05-23T09:44:51.897Z,35.30
2023-05-23T09:47:20.153Z,34.80
2023-05-23T09:49:48.912Z,35.50
2023-05-23T09:52:16.935Z,35.10
2023-05-23T09:54:46.550Z,35.50
2023-05-23T09:57:29.669Z,35.50
2023-05-23T10:00:02.288Z,35.10
2023-05-23T10:02:56.448Z,35.20
2023-05-23T10:05:36.421Z,35.30
2023-05-23T10:08:10.652Z,35.40
2023-05-23T10:11:37.586Z,35.30
2023-05-23T10:14:12.469Z,35.00
2023-05-23T10:16:56.879Z,35.10
2023-05-23T10:19:45.626Z,34.70
2023-05-23T10:22:15.814Z,35.10
2023-05-23T10:24:46.541Z,35.10
2023-05-23T10:27:14.886Z,34.90
2023-05-23T10:29:43.218Z,35.40
2023-05-23T10:32:14.899Z,35.00
2023-05-23T10:34:53.366Z,34.90
2023-05-23T10:37:30.200Z,34.30
2023-05-23T10:40:05.961Z,34.30
2023-05-23T10:42:44.520Z,33.90
2023-05-23T10:45:19.643Z,34.10
2023-05-23T10:47:52.325Z,34.20
2023-05-23T10:50:34.072Z,34.00
2023-05-23T10:53:03.669Z,33.30
2023-05-23T10:55:36.668Z,33.30
2023-05-23T10:58:12.578Z,33.20
2023-05-23T11:00:40.795Z,33.40
2023-05-23T11:03:11.613Z,33.00
2023-05-23T11:05:49.111Z,33.20
2023-05-23T11:08:17.823Z,33.00
2023-05-23T11:10:56.268Z,33.60
2023-05-23T11:13:24.927Z,33.50
2023-05-23T11:15:53.545Z,33.10
2023-05-23T11:18:25.859Z,33.60
2023-05-23T11:20:55.173Z,33.40
2023-05-23T11:23:25.637Z,32.90
2023-05-23T11:25:55.422Z,33.00
2023-05-23T11:28:24.079Z,32.80
2023-05-23T11:30:52.448Z,32.80
2023-05-23T11:33:21.043Z,33.30
2023-05-23T11:35:52.208Z,33.40
2023-05-23T11:38:21.199Z,33.60
2023-05-23T11:40:49.816Z,33.40
2023-05-23T11:43:19.762Z,33.40
2023-05-23T11:45:48.230Z,33.10
2023-05-23T11:48:18.116Z,33.10
2023-05-23T11:50:48.713Z,33.00
2023-05-23T11:53:21.521Z,32.90
2023-05-23T11:55:52.921Z,32.00
2023-05-23T11:58:22.036Z,31.30
2023-05-23T12:00:50.055Z,31.40
2023-05-23T12:03:18.257Z,30.80
2023-05-23T12:05:46.803Z,30.60
2023-05-23T12:08:15.449Z,29.90
2023-05-23T12:10:59.796Z,30.00
2023-05-23T12:13:29.910Z,30.60
2023-05-23T12:16:00.362Z,30.40
2023-05-23T12:18:30.785Z,30.30
2023-05-23T12:21:03.120Z,30.30
2023-05-23T12:23:34.555Z,29.90
2023-05-23T12:26:07.857Z,30.50
2023-05-23T12:28:37.986Z,30.00
2023-05-23T12:31:13.904Z,29.80
2023-05-23T12:33:43.895Z,30.20
2023-05-23T12:36:12.727Z,30.80
2023-05-23T12:38:45.506Z,29.70
2023-05-23T12:41:19.590Z,29.90
2023-05-23T12:43:55.771Z,30.10
2023-05-23T12:46:26.069Z,30.00
2023-05-23T12:48:55.269Z,29.40
2023-05-23T12:51:23.310Z,29.90
2023-05-23T12:53:52.109Z,29.50
2023-05-23T12:56:27.071Z,30.90
2023-05-23T12:58:55.103Z,29.30
2023-05-23T13:01:23.274Z,29.40
2023-05-23T13:03:51.408Z,29.70
2023-05-23T13:06:19.514Z,29.50
2023-05-23T13:08:48.646Z,29.50
2023-05-23T13:11:16.794Z,29.60
2023-05-23T13:13:47.925Z,29.60
2023-05-23T13:16:16.406Z,29.60
2023-05-23T13:18:44.708Z,29.30
2023-05-23T13:21:12.833Z,29.40
2023-05-23T13:23:40.942Z,29.20
2023-05-23T13:26:09.285Z,29.10
2023-05-23T13:28:37.357Z,29.10
2023-05-23T13:31:07.148Z,29.10
2023-05-23T13:33:35.458Z,28.90
2023-05-23T13:36:09.718Z,29.20
2023-05-23T13:38:38.933Z,29.10
2023-05-23T13:41:07.344Z,29.10
2023-05-23T13:43:35.426Z,29.30
2023-05-23T13:46:03.555Z,28.90
2023-05-23T13:48:32.948Z,29.00
2023-05-23T13:51:02.520Z,28.70
2023-05-23T13:53:30.633Z,29.20
2023-05-23T13:55:58.791Z,28.50
2023-05-23T13:58:27.333Z,28.70
2023-05-23T14:00:55.350Z,28.90
2023-05-23T14:03:24.473Z,28.50
2023-05-23T14:05:54.111Z,28.80
2023-05-23T14:08:22.288Z,28.60
2023-05-23T14:10:50.435Z,29.20
2023-05-23T14:13:18.730Z,29.00
2023-05-23T14:15:46.775Z,28.80
2023-05-23T14:18:14.948Z,28.70
2023-05-23T14:20:43.063Z,28.90
2023-05-23T14:23:12.401Z,28.70
2023-05-23T14:25:40.850Z,28.40
2023-05-23T14:28:09.086Z,29.00
2023-05-23T14:30:37.136Z,28.20
2023-05-23T14:33:05.428Z,28.90
2023-05-23T14:35:33.606Z,28.00
2023-05-23T14:38:01.608Z,27.60
2023-05-23T14:40:30.996Z,27.50
2023-05-23T14:42:59.029Z,28.00
2023-05-23T14:45:27.339Z,28.50
2023-05-23T14:47:55.717Z,27.40
2023-05-23T14:50:23.859Z,27.20
2023-05-23T14:52:51.949Z,27.30
2023-05-23T14:55:20.038Z,28.80
2023-05-23T14:57:49.531Z,27.60
2023-05-23T15:00:19.414Z,28.40
2023-05-23T15:02:47.572Z,28.10
2023-05-23T15:05:15.843Z,27.70
2023-05-23T15:07:44.288Z,28.20
2023-05-23T15:10:12.550Z,28.00
2023-05-23T15:12:40.664Z,28.20
2023-05-23T15:15:11.363Z,27.70
2023-05-23T15:17:39.553Z,27.40
2023-05-23T15:20:10.120Z,28.20
2023-05-23T15:22:39.814Z,27.90
2023-05-23T15:25:09.770Z,28.00
2023-05-23T15:27:38.285Z,28.80
2023-05-23T15:30:10.195Z,28.30
2023-05-23T15:32:38.558Z,28.60
2023-05-23T15:35:07.906Z,28.20
2023-05-23T15:37:35.987Z,28.70
2023-05-23T15:40:04.443Z,28.00
2023-05-23T15:42:32.838Z,28.50
2023-05-23T15:45:00.865Z,28.40
2023-05-23T15:47:30.385Z,28.20
2023-05-23T15:49:58.500Z,28.10
2023-05-23T15:52:26.621Z,28.40
2023-05-23T15:54:55.010Z,28.40
2023-05-23T15:57:23.002Z,28.00
2023-05-23T15:59:51.059Z,28.50
2023-05-23T16:02:20.242Z,28.20
2023-05-23T16:04:49.810Z,27.70
2023-05-23T16:07:18.512Z,26.90
2023-05-23T16:09:46.743Z,26.70
2023-05-23T16:12:14.878Z,27.10
2023-05-23T16:14:42.950Z,26.20
2023-05-23T16:17:10.996Z,26.60
2023-05-23T16:19:39.133Z,26.30
2023-05-23T16:22:08.733Z,26.00
2023-05-23T16:24:36.739Z,26.70
2023-05-23T16:27:05.256Z,26.50
2023-05-23T16:29:33.349Z,26.30
2023-05-23T16:32:01.429Z,26.00
2023-05-23T16:34:29.513Z,26.10
2023-05-23T16:36:57.481Z,26.50
2023-05-23T16:39:26.864Z,26.20
2023-05-23T16:41:54.927Z,26.40
2023-05-23T16:44:22.950Z,26.00
2023-05-23T16:46:51.443Z,25.90
2023-05-23T16:49:19.586Z,25.90
2023-05-23T16:51:48.803Z,26.00
2023-05-23T16:54:17.114Z,25.90
2023-05-23T16:56:46.510Z,25.80
2023-05-23T16:59:14.565Z,25.90
2023-05-23T17:01:42.675Z,25.80
2023-05-23T17:04:10.954Z,25.60
2023-05-23T17:06:39.021Z,25.90
2023-05-23T17:09:07.037Z,25.40
2023-05-23T17:11:35.131Z,24.90
2023-05-23T17:14:04.626Z,25.60
2023-05-23T17:16:33.554Z,25.30
2023-05-23T17:19:01.981Z,24.90
2023-05-23T17:21:30.103Z,24.90
2023-05-23T17:23:58.289Z,24.80
2023-05-23T17:26:27.895Z,24.90
2023-05-23T17:28:56.044Z,25.00
2023-05-23T17:31:25.478Z,25.30
2023-05-23T17:33:53.570Z,24.90
2023-05-23T17:36:21.790Z,24.90
2023-05-23T17:38:49.815Z,25.00
2023-05-23T17:41:17.812Z,24.90
2023-05-23T17:43:46.877Z,25.00
2023-05-23T17:46:14.998Z,25.10
2023-05-23T17:48:47.014Z,24.70
2023-05-23T17:51:16.666Z,25.20
2023-05-23T17:53:45.082Z,24.80
2023-05-23T17:56:13.225Z,23.30
2023-05-23T17:58:43.392Z,23.10
2023-05-23T18:01:13.434Z,23.30
2023-05-23T18:03:41.684Z,23.50
2023-05-23T18:06:11.085Z,24.50
2023-05-23T18:08:39.392Z,23.10
2023-05-23T18:11:07.443Z,22.70
2023-05-23T18:13:35.503Z,22.80
2023-05-23T18:16:03.587Z,23.30
2023-05-23T18:18:32.246Z,23.20
2023-05-23T18:21:00.673Z,23.40
2023-05-23T18:23:30.021Z,23.40
2023-05-23T18:25:58.352Z,23.00
2023-05-23T18:28:26.451Z,23.00
2023-05-23T18:30:54.460Z,23.40
2023-05-23T18:33:22.754Z,23.70
2023-05-23T18:35:51.639Z,23.50
2023-05-23T18:38:19.712Z,23.40
2023-05-23T18:40:49.202Z,23.20
2023-05-23T18:43:17.484Z,23.20
2023-05-23T18:45:45.998Z,23.40
2023-05-23T18:48:14.641Z,23.60
2023-05-23T18:50:42.840Z,23.30
2023-05-23T18:53:11.251Z,23.30
2023-05-23T18:55:39.284Z,23.70
2023-05-23T18:58:08.712Z,23.80
2023-05-23T19:00:36.784Z,23.80
2023-05-23T19:03:05.327Z,23.70
2023-05-23T19:05:33.488Z,24.00
2023-05-23T19:08:01.739Z,24.10
2023-05-23T19:10:29.779Z,23.90
2023-05-23T19:12:57.818Z,24.10
2023-05-23T19:15:27.249Z,24.10
2023-05-23T19:17:55.343Z,24.20
2023-05-23T19:20:23.480Z,24.20
2023-05-23T19:22:52.728Z,24.40
2023-05-23T19:25:21.522Z,24.40
2023-05-23T19:27:49.625Z,24.00
2023-05-23T19:30:17.792Z,24.60
2023-05-23T19:32:47.339Z,24.00
2023-05-23T19:35:17.038Z,24.00
2023-05-23T19:37:45.785Z,24.30
2023-05-23T19:40:14.550Z,24.10
2023-05-23T19:42:42.627Z,24.60
2023-05-23T19:45:12.166Z,24.20
2023-05-23T19:47:40.662Z,25.00
2023-05-23T19:50:12.931Z,23.90
2023-05-23T19:52:41.930Z,25.20
2023-05-23T19:55:11.059Z,24.20
2023-05-23T19:57:39.078Z,25.70
2023-05-23T20:00:09.682Z,25.80
2023-05-23T20:02:38.448Z,26.30
2023-05-23T20:05:08.234Z,26.50
2023-05-23T20:07:37.735Z,27.00
2023-05-23T20:10:07.318Z,27.40
2023-05-23T20:12:35.707Z,27.80
2023-05-23T20:15:05.242Z,28.00
2023-05-23T20:17:33.480Z,27.50
2023-05-23T20:20:02.299Z,28.40
2023-05-23T20:22:30.372Z,28.10
2023-05-23T20:24:59.730Z,28.70
2023-05-23T20:27:28.134Z,28.80
2023-05-23T20:29:56.278Z,29.00
2023-05-23T20:32:24.386Z,29.00
2023-05-23T20:34:52.717Z,28.90
2023-05-23T20:37:20.956Z,28.70
2023-05-23T20:39:49.278Z,29.40
2023-05-23T20:42:19.033Z,29.40
2023-05-23T20:44:47.795Z,29.30
2023-05-23T20:47:17.633Z,29.20
2023-05-23T20:49:47.632Z,29.50
2023-05-23T20:52:15.679Z,29.60
2023-05-23T20:54:43.734Z,29.70
2023-05-23T20:57:11.759Z,29.80
2023-05-23T20:59:41.117Z,29.80
2023-05-23T21:02:09.881Z,29.80
2023-05-23T21:04:37.947Z,30.20
2023-05-23T21:07:06.198Z,30.00
2023-05-23T21:09:34.253Z,30.00
2023-05-23T21:12:02.420Z,30.20
2023-05-23T21:14:30.477Z,30.50
2023-05-23T21:16:59.917Z,30.90
2023-05-23T21:19:28.334Z,30.70
2023-05-23T21:21:56.411Z,31.00
2023-05-23T21:24:25.356Z,31.40
2023-05-23T21:26:53.529Z,31.00
2023-05-23T21:29:21.590Z,31.70
2023-05-23T21:31:49.790Z,31.40
2023-05-23T21:34:23.954Z,31.80
2023-05-23T21:36:52.930Z,31.40
2023-05-23T21:39:21.458Z,31.70
2023-05-23T21:41:49.525Z,31.50
2023-05-23T21:44:18.775Z,32.00
2023-05-23T21:46:47.217Z,32.40
2023-05-23T21:49:15.559Z,32.30
2023-05-23T21:51:44.972Z,32.20
2023-05-23T21:54:12.959Z,32.60
2023-05-23T21:56:41.039Z,32.40
2023-05-23T21:59:09.611Z,32.70
2023-05-23T22:01:37.700Z,32.60
2023-05-23T22:04:05.931Z,33.20
2023-05-23T22:06:34.167Z,33.30
2023-05-23T22:09:03.688Z,33.60
2023-05-23T22:11:34.102Z,33.40
2023-05-23T22:14:02.852Z,34.00
2023-05-23T22:16:32.778Z,33.90
2023-05-23T22:19:01.987Z,34.20
2023-05-23T22:21:30.228Z,34.30
2023-05-23T22:23:58.591Z,34.20
2023-05-23T22:26:28.013Z,34.50
2023-05-23T22:28:56.640Z,34.50
2023-05-23T22:31:24.837Z,34.10
2023-05-23T22:33:53.318Z,35.70
2023-05-23T22:36:22.236Z,34.90
2023-05-23T22:38:50.463Z,35.50
2023-05-23T22:41:18.825Z,35.20
2023-05-23T22:43:48.221Z,35.90
2023-05-23T22:46:16.236Z,34.20
2023-05-23T22:48:44.817Z,34.40
2023-05-23T22:51:14.563Z,35.40
2023-05-23T22:53:43.259Z,35.50
2023-05-23T22:56:11.350Z,35.90
2023-05-23T22:58:39.437Z,35.90
2023-05-23T23:01:08.877Z,35.10
2023-05-23T23:03:37.059Z,35.70
2023-05-23T23:06:07.478Z,35.60
2023-05-23T23:08:35.683Z,35.70
2023-05-23T23:11:07.039Z,35.60
2023-05-23T23:13:35.073Z,35.70
2023-05-23T23:16:03.058Z,36.40
2023-05-23T23:18:32.398Z,36.20
2023-05-23T23:21:00.463Z,36.20
2023-05-23T23:23:28.486Z,36.00
2023-05-23T23:25:56.556Z,37.30
2023-05-23T23:28:24.558Z,38.00
2023-05-23T23:30:52.517Z,37.10
2023-05-23T23:33:20.506Z,36.50
2023-05-23T23:35:51.675Z,36.60
2023-05-23T23:38:19.719Z,36.50
2023-05-23T23:40:47.769Z,37.10
2023-05-23T23:43:15.932Z,37.00
2023-05-23T23:45:43.993Z,37.60
2023-05-23T23:48:13.752Z,37.30
2023-05-23T23:50:42.106Z,37.00
2023-05-23T23:53:12.467Z,37.00
2023-05-23T23:55:40.571Z,37.50
2023-05-23T23:58:08.608Z,37.40
